Time;durP1;ratioP1;P1;durP2;ratioP2;P2;SDS_P1;SDS_P2;PMS_P1;PMS_P2;Temp;Humidity;BMP_temperature;BMP_pressure;BME280_temperature;BME280_humidity;BME280_pressure;Samples;Min_cycle;Max_cycle;Signal;HPM_P1;HPM_P2
2022/09/09 00:00:34;;;;;;;2.43;2.20;;;14.70;99.90;;;;;;2614847;54;20420;-71
2022/09/09 00:06:35;;;;;;;2.00;1.83;;;14.70;99.90;;;;;;2614635;54;20942;-70
2022/09/09 00:32:05;;;;;;;3.17;1.90;;;14.80;99.90;;;;;;2612905;54;20433;-69
2022/09/09 00:37:57;;;;;;;3.73;2.27;;;14.80;99.90;;;;;;2613382;46;20654;-69
2022/09/09 00:47:42;;;;;;;2.70;2.13;;;14.70;99.90;;;;;;2613227;54;20414;-69
2022/09/09 00:51:07;;;;;;;2.00;1.80;;;14.60;99.90;;;;;;2612996;54;20402;-69
2022/09/09 00:56:54;;;;;;;4.13;2.30;;;14.50;99.90;;;;;;2613135;54;20496;-69
2022/09/09 01:03:02;;;;;;;3.00;2.60;;;14.50;99.90;;;;;;2612711;54;20127;-69
2022/09/09 01:09:07;;;;;;;2.40;2.20;;;14.60;99.90;;;;;;2612231;54;20494;-69
2022/09/09 01:18:23;;;;;;;3.60;2.57;;;14.60;99.90;;;;;;2613700;54;20422;-75
2022/09/09 01:30:45;;;;;;;6.57;3.53;;;14.60;99.90;;;;;;2614106;54;20366;-73
2022/09/09 01:39:54;;;;;;;6.33;3.30;;;14.50;99.90;;;;;;2614905;46;20414;-73
2022/09/09 01:42:57;;;;;;;4.23;3.10;;;14.60;99.90;;;;;;2615613;54;20403;-73
2022/09/09 01:45:24;;;;;;;3.60;3.10;;;14.70;99.90;;;;;;2614663;46;20195;-74
2022/09/09 01:51:11;;;;;;;5.70;3.20;;;14.70;99.90;;;;;;2613886;54;20366;-73
2022/09/09 02:03:35;;;;;;;6.37;4.63;;;14.90;99.90;;;;;;2614484;54;20478;-72
2022/09/09 02:09:25;;;;;;;6.43;4.13;;;14.80;99.90;;;;;;2613782;54;20354;-73
2022/09/09 02:21:48;;;;;;;5.93;4.30;;;14.90;99.90;;;;;;2614320;54;20542;-73
2022/09/09 02:27:36;;;;;;;5.87;3.87;;;14.90;99.90;;;;;;2615178;54;20423;-72
2022/09/09 02:33:28;;;;;;;6.30;4.40;;;14.80;99.90;;;;;;2614389;54;20138;-73
2022/09/09 02:36:16;;;;;;;7.13;4.73;;;14.90;99.90;;;;;;2613320;54;20479;-73
2022/09/09 02:38:50;;;;;;;9.57;4.40;;;14.90;99.90;;;;;;2613794;39;20867;-72
2022/09/09 02:44:37;;;;;;;10.10;4.47;;;15.00;99.90;;;;;;2613849;54;20395;-74
2022/09/09 02:50:43;;;;;;;4.80;3.73;;;15.20;99.90;;;;;;2612548;54;20138;-73
2022/09/09 02:56:37;;;;;;;9.33;5.00;;;15.40;99.90;;;;;;2611918;54;20538;-73
2022/09/09 03:02:25;;;;;;;6.03;4.73;;;15.40;99.90;;;;;;2613007;54;20394;-73
2022/09/09 03:11:33;;;;;;;8.30;4.97;;;15.40;99.90;;;;;;2612468;54;20387;-74
2022/09/09 03:17:20;;;;;;;5.67;3.93;;;15.40;99.90;;;;;;2611454;39;20663;-73
2022/09/09 03:23:08;;;;;;;7.23;4.20;;;15.40;99.90;;;;;;2613784;39;20506;-73
2022/09/09 03:28:55;;;;;;;5.93;3.97;;;15.40;99.90;;;;;;2615047;54;20134;-74
2022/09/09 03:34:43;;;;;;;8.20;3.30;;;15.40;99.90;;;;;;2611818;54;20138;-73
2022/09/09 03:41:09;;;;;;;9.33;4.20;;;15.30;99.90;;;;;;2614263;39;20929;-73
2022/09/09 03:44:03;;;;;;;7.77;3.50;;;15.20;99.90;;;;;;2613937;54;20439;-72
2022/09/09 03:49:50;;;;;;;6.13;3.60;;;15.20;99.90;;;;;;2613774;54;20472;-73
2022/09/09 03:55:38;;;;;;;4.70;3.17;;;15.20;99.90;;;;;;2613584;54;20170;-73
2022/09/09 04:01:26;;;;;;;7.10;3.27;;;15.20;99.90;;;;;;2614653;54;20524;-71
2022/09/09 04:07:14;;;;;;;5.23;3.00;;;15.30;99.90;;;;;;2614074;54;20399;-73
2022/09/09 04:13:03;;;;;;;4.50;2.90;;;15.20;99.90;;;;;;2614533;46;20142;-71
2022/09/09 04:18:52;;;;;;;7.20;4.43;;;15.30;99.90;;;;;;2613827;54;20415;-73
2022/09/09 04:24:40;;;;;;;6.70;3.97;;;15.30;99.90;;;;;;2613813;54;20379;-74
2022/09/09 04:30:28;;;;;;;7.40;3.60;;;15.30;99.90;;;;;;2614594;54;20131;-73
2022/09/09 04:36:16;;;;;;;5.27;3.10;;;15.30;99.90;;;;;;2612717;54;20130;-73
2022/09/09 04:42:12;;;;;;;5.97;3.93;;;15.40;99.90;;;;;;2612521;47;20396;-72
2022/09/09 04:48:00;;;;;;;11.80;4.33;;;15.20;99.90;;;;;;2613542;54;20139;-73
2022/09/09 04:53:48;;;;;;;9.57;4.10;;;15.20;99.90;;;;;;2612192;39;20807;-73
2022/09/09 04:59:35;;;;;;;6.00;3.83;;;15.30;99.90;;;;;;2613377;54;20379;-73
2022/09/09 05:05:22;;;;;;;7.43;3.60;;;15.40;99.90;;;;;;2613082;54;20281;-73
2022/09/09 05:11:20;;;;;;;5.03;3.50;;;15.40;99.90;;;;;;2613644;39;20614;-73
2022/09/09 05:17:10;;;;;;;9.53;3.33;;;15.50;99.90;;;;;;2613138;46;20563;-72
2022/09/09 05:22:58;;;;;;;12.40;4.17;;;15.60;99.90;;;;;;2614449;54;20392;-73
2022/09/09 05:28:47;;;;;;;9.17;3.70;;;15.60;99.90;;;;;;2615090;54;20225;-72
2022/09/09 05:34:34;;;;;;;7.33;3.73;;;15.60;99.90;;;;;;2613270;39;20584;-74
2022/09/09 05:40:22;;;;;;;12.83;5.77;;;15.70;99.90;;;;;;2611711;54;20174;-74
2022/09/09 05:46:16;;;;;;;7.03;3.93;;;15.80;99.90;;;;;;2612464;54;20156;-73
2022/09/09 05:52:03;;;;;;;9.03;4.27;;;15.90;99.90;;;;;;2614453;54;20388;-73
2022/09/09 05:57:51;;;;;;;8.57;3.77;;;16.00;99.90;;;;;;2614280;54;20387;-74
2022/09/09 06:03:41;;;;;;;7.13;3.67;;;16.00;99.90;;;;;;2612802;54;20148;-71
2022/09/09 06:09:31;;;;;;;6.83;3.63;;;16.10;99.90;;;;;;2612583;54;20948;-73
2022/09/09 06:15:19;;;;;;;9.33;3.30;;;16.20;99.90;;;;;;2612302;46;20427;-73
2022/09/09 06:21:13;;;;;;;5.87;3.30;;;16.30;99.90;;;;;;2614445;54;20131;-73
2022/09/09 06:27:01;;;;;;;10.20;3.73;;;16.40;99.90;;;;;;2615236;54;20384;-72
2022/09/09 06:32:49;;;;;;;5.20;3.30;;;16.60;99.90;;;;;;2609346;54;20139;-73
2022/09/09 06:38:37;;;;;;;6.70;3.17;;;16.70;99.90;;;;;;2611757;54;20360;-73
2022/09/09 06:44:26;;;;;;;7.33;3.20;;;16.90;99.90;;;;;;2612996;39;21007;-73
2022/09/09 06:47:52;;;;;;;3.93;2.23;;;17.00;99.90;;;;;;2612948;54;20441;-73
2022/09/09 06:53:41;;;;;;;4.53;3.20;;;17.10;99.90;;;;;;2613844;54;20385;-74
2022/09/09 06:59:30;;;;;;;6.47;3.50;;;17.10;99.90;;;;;;2613666;54;20379;-73
2022/09/09 07:05:18;;;;;;;7.33;3.03;;;17.40;99.90;;;;;;2612472;54;20418;-73
2022/09/09 07:11:08;;;;;;;6.57;3.30;;;17.70;99.90;;;;;;2613913;54;20281;-73
2022/09/09 07:16:55;;;;;;;5.73;2.60;;;18.70;99.90;;;;;;2614292;54;20428;-73
2022/09/09 07:22:43;;;;;;;4.37;2.43;;;19.50;99.90;;;;;;2613336;54;20426;-73
2022/09/09 07:28:31;;;;;;;7.80;2.77;;;18.60;99.90;;;;;;2613490;54;20186;-73
2022/09/09 07:34:19;;;;;;;7.60;2.40;;;18.30;99.90;;;;;;2611678;54;20678;-73
2022/09/09 07:40:07;;;;;;;8.10;2.67;;;18.40;99.90;;;;;;2610627;54;20257;-73
2022/09/09 07:43:20;;;;;;;4.67;3.10;;;19.60;99.90;;;;;;2613813;54;20963;-73
2022/09/09 07:45:46;;;;;;;9.70;3.50;;;19.50;99.90;;;;;;2614422;54;20444;-72
2022/09/09 07:51:37;;;;;;;5.67;3.43;;;20.50;99.90;;;;;;2614015;54;20479;-72
2022/09/09 07:57:25;;;;;;;4.57;2.10;;;20.20;99.90;;;;;;2612826;54;20429;-73
2022/09/09 08:03:13;;;;;;;3.00;2.20;;;21.10;99.90;;;;;;2614056;54;21067;-72
2022/09/09 08:09:00;;;;;;;3.60;2.30;;;20.20;99.90;;;;;;2614753;54;20698;-73
2022/09/09 08:14:48;;;;;;;7.80;2.03;;;21.90;99.90;;;;;;2611819;54;20140;-72
2022/09/09 08:20:37;;;;;;;4.23;2.20;;;21.50;99.90;;;;;;2612578;54;20137;-72
2022/09/09 08:26:30;;;;;;;5.80;2.03;;;20.70;99.90;;;;;;2614424;54;20432;-72
2022/09/09 08:32:19;;;;;;;7.03;3.57;;;20.00;99.90;;;;;;2614415;54;20398;-72
2022/09/09 08:38:06;;;;;;;8.23;3.00;;;20.20;99.90;;;;;;2614097;39;21071;-72
2022/09/09 08:47:54;;;;;;;3.23;2.40;;;20.40;99.90;;;;;;2613242;54;20569;-72
2022/09/09 08:53:46;;;;;;;4.90;2.90;;;20.00;99.90;;;;;;2614826;54;20398;-72
2022/09/09 08:59:33;;;;;;;5.43;2.93;;;20.20;99.90;;;;;;2613489;54;20457;-72
2022/09/09 09:16:21;;;;;;;6.77;2.50;;;20.70;99.50;;;;;;2615178;39;20839;-72
2022/09/09 09:22:31;;;;;;;4.53;2.50;;;22.90;63.50;;;;;;2614036;54;20995;-72
2022/09/09 09:34:32;;;;;;;6.90;2.30;;;23.00;50.80;;;;;;2613356;54;20528;-73
2022/09/09 09:40:21;;;;;;;2.70;2.27;;;22.80;50.00;;;;;;2614075;39;20522;-72
2022/09/09 09:43:23;;;;;;;6.13;2.77;;;22.20;56.00;;;;;;2613289;54;20412;-72
2022/09/09 09:45:49;;;;;;;5.80;2.97;;;22.30;52.40;;;;;;2613001;39;20825;-71
2022/09/09 09:51:36;;;;;;;4.47;2.50;;;22.00;57.30;;;;;;2613009;54;20198;-73
2022/09/09 09:57:30;;;;;;;4.57;2.57;;;22.30;44.50;;;;;;2614406;39;21131;-71
2022/09/09 10:09:35;;;;;;;5.90;3.20;;;21.00;56.30;;;;;;2612534;54;20553;-71
2022/09/09 10:16:00;;;;;;;5.40;2.90;;;20.70;59.00;;;;;;2614290;54;20369;-72
2022/09/09 10:32:38;;;;;;;4.20;2.80;;;21.70;45.00;;;;;;2614181;39;20758;-73
2022/09/09 10:38:44;;;;;;;3.00;2.43;;;22.90;29.80;;;;;;2613147;54;20523;-71
2022/09/09 10:48:03;;;;;;;3.33;2.47;;;21.60;37.40;;;;;;2614200;54;20607;-73
2022/09/09 10:53:53;;;;;;;3.17;2.87;;;21.90;33.80;;;;;;2613900;39;20488;-72
2022/09/09 10:59:48;;;;;;;3.97;3.23;;;21.80;33.30;;;;;;2614236;54;20428;-72
2022/09/09 11:05:44;;;;;;;3.60;2.90;;;21.80;32.20;;;;;;2614024;54;20922;-72
2022/09/09 11:47:53;;;;;;;3.40;3.10;;;21.20;37.10;;;;;;2613071;54;20439;-72
2022/09/09 11:53:54;;;;;;;5.53;2.87;;;21.70;41.10;;;;;;2611408;54;20529;-72
2022/09/09 12:06:19;;;;;;;3.10;2.80;;;21.10;42.90;;;;;;2614628;54;20474;-72
2022/09/09 12:12:13;;;;;;;2.77;2.30;;;20.10;78.70;;;;;;2615383;54;20400;-72
2022/09/09 12:18:02;;;;;;;3.10;2.40;;;19.60;99.90;;;;;;2615252;54;20496;-72
2022/09/09 12:23:55;;;;;;;4.80;2.77;;;20.30;92.30;;;;;;2615259;39;21070;-72
2022/09/09 12:30:01;;;;;;;5.43;3.00;;;20.60;90.80;;;;;;2614347;54;20406;-74
2022/09/09 12:35:55;;;;;;;4.47;3.17;;;20.90;82.00;;;;;;2612358;54;20404;-71
2022/09/09 12:48:19;;;;;;;4.73;4.20;;;20.50;79.70;;;;;;2616125;54;20431;-73
2022/09/09 12:50:55;;;;;;;4.13;2.70;;;20.20;79.60;;;;;;2616136;54;20437;-71
2022/09/09 12:56:47;;;;;;;2.57;2.37;;;19.90;90.70;;;;;;2613962;54;20467;-72
2022/09/09 13:02:35;;;;;;;3.93;3.10;;;21.90;67.40;;;;;;2616269;54;20410;-73
2022/09/09 13:08:24;;;;;;;3.33;3.03;;;22.30;57.50;;;;;;2614411;54;20126;-72
2022/09/09 13:14:20;;;;;;;4.80;2.70;;;22.00;51.70;;;;;;2614554;54;20384;-72
2022/09/09 13:26:42;;;;;;;6.27;2.57;;;20.20;86.40;;;;;;2612180;54;20443;-74
2022/09/09 13:32:30;;;;;;;4.43;3.27;;;19.80;99.90;;;;;;2615761;39;20894;-71
2022/09/09 13:38:19;;;;;;;5.30;2.57;;;19.30;99.90;;;;;;2614394;54;20423;-72
2022/09/09 13:44:07;;;;;;;3.53;2.77;;;18.50;99.90;;;;;;2612595;54;20399;-73
2022/09/09 13:53:20;;;;;;;9.50;2.87;;;18.20;99.90;;;;;;2612310;54;20419;-73
2022/09/09 13:59:13;;;;;;;5.27;2.20;;;16.80;99.90;;;;;;2615622;54;20392;-73
2022/09/09 14:05:01;;;;;;;10.37;2.93;;;16.80;99.90;;;;;;2616045;54;20946;-73
2022/09/09 14:10:49;;;;;;;5.47;2.80;;;17.30;99.90;;;;;;2615590;54;20663;-73
2022/09/09 14:16:37;;;;;;;4.57;2.20;;;18.10;99.90;;;;;;2615593;54;20167;-73
2022/09/09 14:22:25;;;;;;;2.57;2.07;;;18.30;99.90;;;;;;2615672;54;20417;-73
2022/09/09 14:28:14;;;;;;;3.50;2.50;;;18.00;99.90;;;;;;2615323;54;20126;-74
2022/09/09 14:34:01;;;;;;;4.40;3.10;;;18.00;99.90;;;;;;2616305;54;20408;-75
2022/09/09 14:39:50;;;;;;;4.73;3.70;;;18.00;99.90;;;;;;2616496;39;20525;-74
2022/09/09 14:45:38;;;;;;;3.13;2.40;;;17.80;99.90;;;;;;2615496;39;20467;-74
2022/09/09 14:51:35;;;;;;;3.70;2.80;;;18.50;99.90;;;;;;2614843;54;20152;-74
2022/09/09 14:57:24;;;;;;;4.43;2.47;;;20.80;99.90;;;;;;2614514;54;20185;-73
2022/09/09 15:03:11;;;;;;;5.87;2.80;;;19.00;99.90;;;;;;2614568;54;20535;-73
2022/09/09 15:08:59;;;;;;;7.87;4.77;;;18.50;99.90;;;;;;2614538;54;20239;-75
2022/09/09 15:14:48;;;;;;;7.30;2.00;;;17.70;99.90;;;;;;2614637;54;20489;-73
2022/09/09 15:20:37;;;;;;;3.80;1.70;;;16.70;99.90;;;;;;2615000;54;20420;-73
2022/09/09 15:26:24;;;;;;;4.83;1.80;;;16.30;99.90;;;;;;2614916;54;20437;-73
2022/09/09 15:32:12;;;;;;;2.43;1.60;;;16.20;99.90;;;;;;2615997;54;20956;-73
2022/09/09 15:38:04;;;;;;;1.53;1.30;;;16.00;99.90;;;;;;2615460;54;20157;-73
2022/09/09 15:43:56;;;;;;;2.00;1.40;;;16.00;99.90;;;;;;2615719;54;20506;-73
2022/09/09 15:53:24;;;;;;;1.60;1.37;;;15.90;99.90;;;;;;2615425;54;20418;-74
2022/09/09 15:59:12;;;;;;;5.13;1.37;;;15.90;99.90;;;;;;2614982;54;20420;-73
2022/09/09 16:05:01;;;;;;;2.20;1.53;;;15.90;99.90;;;;;;2615529;54;20154;-75
2022/09/09 16:10:48;;;;;;;3.27;2.33;;;16.00;99.90;;;;;;2615391;54;20363;-74
2022/09/09 16:16:37;;;;;;;2.83;1.80;;;16.00;99.90;;;;;;2615439;54;21101;-73
2022/09/09 16:22:24;;;;;;;1.70;1.50;;;16.10;99.90;;;;;;2615058;54;20138;-73
2022/09/09 16:28:12;;;;;;;2.40;1.87;;;16.10;99.90;;;;;;2615728;54;20142;-72
2022/09/09 16:34:00;;;;;;;2.43;2.10;;;16.20;99.90;;;;;;2614485;54;20131;-75
2022/09/09 16:39:50;;;;;;;2.07;1.87;;;16.10;99.90;;;;;;2614339;54;20146;-72
2022/09/09 16:45:45;;;;;;;1.80;1.70;;;16.10;99.90;;;;;;2616006;54;20379;-73
2022/09/09 16:48:50;;;;;;;2.47;1.80;;;16.10;99.90;;;;;;2615808;54;20415;-72
2022/09/09 16:54:56;;;;;;;3.57;1.97;;;16.10;99.90;;;;;;2615968;54;20406;-72
2022/09/09 17:00:46;;;;;;;2.63;2.17;;;16.10;99.90;;;;;;2615648;54;20470;-74
2022/09/09 17:06:34;;;;;;;2.83;2.63;;;16.10;99.90;;;;;;2616497;39;20761;-73
2022/09/09 17:12:22;;;;;;;3.93;2.53;;;16.30;99.90;;;;;;2616419;39;20753;-72
2022/09/09 17:18:11;;;;;;;2.73;2.37;;;16.20;99.90;;;;;;2616032;54;20127;-73
2022/09/09 17:24:00;;;;;;;3.30;3.03;;;16.20;99.90;;;;;;2615269;54;20430;-74
2022/09/09 17:29:47;;;;;;;5.07;3.70;;;16.20;99.90;;;;;;2615999;54;20391;-73
2022/09/09 17:35:35;;;;;;;4.87;3.03;;;16.20;99.90;;;;;;2615392;54;20267;-73
2022/09/09 17:41:26;;;;;;;3.57;3.00;;;16.10;99.90;;;;;;2615951;54;20130;-74
2022/09/09 17:47:14;;;;;;;3.57;3.27;;;16.00;99.90;;;;;;2615607;54;20423;-74
2022/09/09 17:50:23;;;;;;;7.43;4.17;;;16.00;99.90;;;;;;2615127;47;20419;-74
2022/09/09 17:52:49;;;;;;;3.40;3.10;;;16.10;99.90;;;;;;2615548;54;20171;-74
2022/09/09 17:58:37;;;;;;;4.73;3.10;;;16.10;99.90;;;;;;2615619;54;20119;-73
2022/09/09 18:04:25;;;;;;;3.77;3.40;;;16.20;99.90;;;;;;2615520;54;20437;-73
2022/09/09 18:10:12;;;;;;;4.30;3.00;;;16.20;99.90;;;;;;2615194;54;20119;-74
2022/09/09 18:16:01;;;;;;;8.53;3.00;;;16.20;99.90;;;;;;2615292;54;20155;-74
2022/09/09 18:21:52;;;;;;;3.33;3.07;;;16.20;99.90;;;;;;2616025;54;20406;-73
2022/09/09 18:27:39;;;;;;;4.73;3.13;;;16.30;99.90;;;;;;2615587;54;20503;-73
2022/09/09 18:33:28;;;;;;;6.00;3.00;;;16.30;99.90;;;;;;2614648;54;20283;-73
2022/09/09 18:39:17;;;;;;;3.43;3.13;;;16.30;99.90;;;;;;2615763;54;20395;-73
2022/09/09 18:42:21;;;;;;;4.70;2.73;;;16.30;99.90;;;;;;2614626;53;20384;-73
2022/09/09 18:44:46;;;;;;;3.53;3.20;;;16.30;99.90;;;;;;2615009;54;20436;-74
2022/09/09 18:57:18;;;;;;;5.00;2.90;;;16.30;99.90;;;;;;2615984;54;20375;-74
2022/09/09 19:03:05;;;;;;;5.10;3.90;;;16.20;99.90;;;;;;2615574;54;20130;-73
2022/09/09 19:08:54;;;;;;;4.27;2.87;;;16.20;99.90;;;;;;2615687;54;20136;-73
2022/09/09 19:14:42;;;;;;;3.47;2.53;;;16.10;99.90;;;;;;2615601;54;20134;-73
2022/09/09 19:20:30;;;;;;;5.03;3.00;;;16.10;99.90;;;;;;2616069;31;20821;-74
2022/09/09 19:26:18;;;;;;;3.70;3.20;;;16.10;99.90;;;;;;2615634;39;20561;-74
2022/09/09 19:32:06;;;;;;;6.43;3.70;;;16.00;99.90;;;;;;2615351;54;20146;-74
2022/09/09 19:37:54;;;;;;;5.43;3.00;;;16.00;99.90;;;;;;2615714;54;20239;-74
2022/09/09 19:43:41;;;;;;;4.27;3.87;;;16.00;99.90;;;;;;2613677;54;20130;-74
2022/09/09 19:49:30;;;;;;;7.97;3.77;;;15.90;99.90;;;;;;2614977;54;20126;-74
2022/09/09 19:55:17;;;;;;;6.93;3.40;;;15.90;99.90;;;;;;2615445;54;20384;-74
2022/09/09 20:07:22;;;;;;;4.53;3.00;;;16.00;99.90;;;;;;2615277;54;20408;-74
2022/09/09 20:13:10;;;;;;;5.83;3.50;;;15.80;99.90;;;;;;2615752;31;20584;-74
2022/09/09 20:19:01;;;;;;;4.80;3.20;;;15.80;99.90;;;;;;2615652;54;20400;-74
2022/09/09 20:24:48;;;;;;;5.00;3.63;;;15.80;99.90;;;;;;2616254;54;20399;-74
2022/09/09 20:30:37;;;;;;;7.40;3.23;;;15.80;99.90;;;;;;2616323;39;20204;-73
2022/09/09 20:36:28;;;;;;;4.67;3.60;;;15.80;99.90;;;;;;2616199;54;20414;-74
2022/09/09 20:42:18;;;;;;;7.33;4.20;;;15.90;99.90;;;;;;2616123;54;20428;-73
2022/09/09 20:48:06;;;;;;;5.13;3.70;;;15.90;99.90;;;;;;2616391;54;20920;-74
2022/09/09 20:57:20;;;;;;;7.00;4.70;;;15.80;99.90;;;;;;2615575;54;20395;-74
2022/09/09 21:03:08;;;;;;;9.00;3.80;;;15.90;99.90;;;;;;2615915;54;20387;-73
2022/09/09 21:08:56;;;;;;;5.13;3.60;;;15.90;99.90;;;;;;2615698;54;20280;-76
2022/09/09 21:14:44;;;;;;;7.00;4.20;;;16.00;99.90;;;;;;2615443;54;20415;-73
2022/09/09 21:20:32;;;;;;;5.73;5.13;;;16.00;99.90;;;;;;2616397;54;20130;-72
2022/09/09 21:26:21;;;;;;;6.23;3.33;;;16.10;99.90;;;;;;2615832;46;20150;-73
2022/09/09 21:32:08;;;;;;;5.90;3.50;;;16.00;99.90;;;;;;2615429;54;20410;-73
2022/09/09 21:37:59;;;;;;;4.53;2.87;;;16.00;99.90;;;;;;2612910;54;20126;-72
2022/09/09 21:43:51;;;;;;;8.77;3.50;;;16.00;99.90;;;;;;2615307;39;20745;-72
2022/09/09 21:49:39;;;;;;;6.20;3.30;;;16.10;99.90;;;;;;2613639;54;20388;-73
2022/09/09 21:52:42;;;;;;;4.93;3.53;;;16.00;99.90;;;;;;2614866;54;20570;-72
2022/09/09 21:55:08;;;;;;;4.13;3.00;;;16.00;99.90;;;;;;2613607;47;20190;-72
2022/09/09 22:00:56;;;;;;;9.97;4.00;;;15.90;99.90;;;;;;2612748;54;20499;-73
2022/09/09 22:06:44;;;;;;;11.13;3.30;;;15.80;99.90;;;;;;2614059;46;20139;-75
2022/09/09 22:12:33;;;;;;;7.80;4.00;;;15.80;99.90;;;;;;2614736;54;20148;-73
2022/09/09 22:18:20;;;;;;;5.37;3.50;;;15.80;99.90;;;;;;2615716;54;20372;-74
2022/09/09 22:24:08;;;;;;;5.70;2.83;;;15.80;99.90;;;;;;2616060;39;20511;-74
2022/09/09 22:29:56;;;;;;;5.97;4.00;;;15.90;99.90;;;;;;2614982;39;21084;-74
2022/09/09 22:35:43;;;;;;;5.23;4.40;;;15.80;99.90;;;;;;2614500;54;20613;-72
2022/09/09 22:41:31;;;;;;;6.73;4.07;;;15.80;99.90;;;;;;2613201;54;20166;-74
2022/09/09 22:47:18;;;;;;;4.87;3.20;;;15.70;99.90;;;;;;2614741;54;20142;-72
2022/09/09 22:57:15;;;;;;;6.70;3.80;;;15.60;99.90;;;;;;2614848;54;20407;-72
2022/09/09 23:03:03;;;;;;;6.13;3.50;;;15.60;99.90;;;;;;2614846;54;20411;-72
2022/09/09 23:08:54;;;;;;;7.40;3.50;;;15.60;99.90;;;;;;2615093;39;20201;-72
2022/09/09 23:14:41;;;;;;;5.40;3.93;;;15.50;99.90;;;;;;2614534;54;20425;-73
2022/09/09 23:20:30;;;;;;;10.07;3.90;;;15.30;99.90;;;;;;2613484;54;20152;-73
2022/09/09 23:26:19;;;;;;;6.83;3.57;;;15.40;99.90;;;;;;2615285;54;20410;-73
2022/09/09 23:32:07;;;;;;;4.97;4.17;;;15.40;99.90;;;;;;2615850;39;20760;-73
2022/09/09 23:37:55;;;;;;;5.67;3.30;;;15.40;99.90;;;;;;2614380;54;20133;-75
2022/09/09 23:43:43;;;;;;;4.23;3.83;;;15.20;99.90;;;;;;2614681;54;20349;-73
2022/09/09 23:49:32;;;;;;;11.70;4.20;;;15.20;99.90;;;;;;2612715;54;20399;-73
2022/09/09 23:52:43;;;;;;;6.33;4.10;;;15.20;99.90;;;;;;2613589;54;20423;-73
2022/09/09 23:55:10;;;;;;;7.40;3.93;;;15.20;99.90;;;;;;2614243;47;20416;-74
